Time;durP1;ratioP1;P1;durP2;ratioP2;P2;SDS_P1;SDS_P2;PMS_P1;PMS_P2;Temp;Humidity;BMP_temperature;BMP_pressure;BME280_temperature;BME280_humidity;BME280_pressure;Samples;Min_cycle;Max_cycle;Signal;HPM_P1;HPM_P2
2021/08/28 00:02:09;;;;;;;4.97;1.83;;;;;;;;;;5119967;28;20211;-66
2021/08/28 00:04:38;;;;;;;3.33;1.53;;;;;;;;;;5119703;28;20236;-64
2021/08/28 00:07:06;;;;;;;2.27;1.20;;;;;;;;;;5119808;28;20204;-66
2021/08/28 00:09:34;;;;;;;2.47;1.30;;;;;;;;;;5119742;28;20669;-65
2021/08/28 00:12:02;;;;;;;4.33;1.43;;;;;;;;;;5119668;28;20565;-66
2021/08/28 00:14:31;;;;;;;1.83;1.33;;;;;;;;;;5119534;28;20313;-66
2021/08/28 00:16:59;;;;;;;2.30;1.40;;;;;;;;;;5119261;28;20231;-66
2021/08/28 00:19:27;;;;;;;4.87;1.27;;;;;;;;;;5119548;28;20200;-66
2021/08/28 00:21:55;;;;;;;5.93;1.37;;;;;;;;;;5119423;28;20209;-66
2021/08/28 00:24:23;;;;;;;2.80;1.20;;;;;;;;;;5119350;28;20304;-66
2021/08/28 00:26:51;;;;;;;1.90;1.50;;;;;;;;;;5104759;28;20652;-66
2021/08/28 00:29:19;;;;;;;1.67;1.20;;;;;;;;;;5099289;28;20213;-66
2021/08/28 00:31:48;;;;;;;2.40;1.70;;;;;;;;;;5098778;28;20201;-66
2021/08/28 00:34:16;;;;;;;2.87;1.60;;;;;;;;;;5098950;28;20236;-66
2021/08/28 00:36:44;;;;;;;2.07;1.37;;;;;;;;;;5098979;28;20225;-66
2021/08/28 00:39:12;;;;;;;2.00;1.17;;;;;;;;;;5099085;28;20297;-66
2021/08/28 00:41:40;;;;;;;1.23;1.00;;;;;;;;;;5098599;28;20205;-66
2021/08/28 00:44:08;;;;;;;3.10;1.00;;;;;;;;;;5098633;28;20301;-66
2021/08/28 00:46:36;;;;;;;5.43;1.20;;;;;;;;;;5098454;28;20216;-66
2021/08/28 00:49:05;;;;;;;2.17;1.07;;;;;;;;;;5099910;28;20287;-66
2021/08/28 00:51:34;;;;;;;1.63;1.00;;;;;;;;;;5101150;28;20226;-66
2021/08/28 00:54:01;;;;;;;3.23;1.00;;;;;;;;;;5110342;28;20227;-66
2021/08/28 00:56:30;;;;;;;1.50;1.00;;;;;;;;;;5119080;28;20236;-66
2021/08/28 00:58:58;;;;;;;1.33;1.20;;;;;;;;;;5120611;28;20291;-66
2021/08/28 01:01:27;;;;;;;0.97;0.90;;;;;;;;;;5120500;28;20268;-66
2021/08/28 01:03:59;;;;;;;1.37;1.10;;;;;;;;;;5120211;28;20233;-66
2021/08/28 01:06:34;;;;;;;3.23;1.33;;;;;;;;;;5118967;28;20766;-66
2021/08/28 01:09:04;;;;;;;3.27;1.40;;;;;;;;;;5119017;28;20287;-66
2021/08/28 01:11:36;;;;;;;2.83;1.20;;;;;;;;;;5118883;28;20293;-66
2021/08/28 01:14:07;;;;;;;2.20;1.23;;;;;;;;;;5118657;28;20683;-66
2021/08/28 01:16:36;;;;;;;1.23;1.13;;;;;;;;;;5117925;28;20205;-66
2021/08/28 01:19:04;;;;;;;3.60;1.40;;;;;;;;;;5118267;28;20205;-66
2021/08/28 01:21:34;;;;;;;1.37;1.27;;;;;;;;;;5118455;28;20629;-66
2021/08/28 01:24:04;;;;;;;1.60;1.20;;;;;;;;;;5118682;28;20231;-66
2021/08/28 01:26:36;;;;;;;1.70;1.10;;;;;;;;;;5106534;28;20205;-66
2021/08/28 01:29:15;;;;;;;1.17;1.00;;;;;;;;;;5097857;28;20233;-66
2021/08/28 01:31:44;;;;;;;2.47;1.10;;;;;;;;;;5097419;28;20292;-66
2021/08/28 01:34:12;;;;;;;3.17;0.97;;;;;;;;;;5098152;28;20236;-66
2021/08/28 01:36:40;;;;;;;2.63;1.00;;;;;;;;;;5098390;28;20232;-66
2021/08/28 01:39:09;;;;;;;2.90;1.00;;;;;;;;;;5098378;28;20288;-66
2021/08/28 01:41:37;;;;;;;4.20;1.20;;;;;;;;;;5097728;28;20585;-66
2021/08/28 01:44:08;;;;;;;1.27;1.10;;;;;;;;;;5098042;28;20225;-66
2021/08/28 01:46:37;;;;;;;2.03;0.80;;;;;;;;;;5097733;28;20285;-66
2021/08/28 01:49:06;;;;;;;2.70;1.20;;;;;;;;;;5099197;28;20230;-66
2021/08/28 01:51:34;;;;;;;1.43;0.90;;;;;;;;;;5099460;28;20633;-66
2021/08/28 01:54:02;;;;;;;2.00;1.20;;;;;;;;;;5109572;28;20220;-64
2021/08/28 01:56:31;;;;;;;2.23;1.10;;;;;;;;;;5118194;28;20681;-66
2021/08/28 01:59:00;;;;;;;2.10;1.17;;;;;;;;;;5118129;28;20228;-64
2021/08/28 02:01:29;;;;;;;1.87;1.40;;;;;;;;;;5117490;28;20209;-64
2021/08/28 02:03:59;;;;;;;2.53;1.00;;;;;;;;;;5117819;28;20229;-64
2021/08/28 02:06:29;;;;;;;1.83;1.30;;;;;;;;;;5118049;28;20284;-64
2021/08/28 02:08:59;;;;;;;1.30;1.00;;;;;;;;;;5118705;28;20260;-64
2021/08/28 02:11:30;;;;;;;4.23;1.50;;;;;;;;;;5118292;28;20715;-65
2021/08/28 02:14:02;;;;;;;2.40;1.20;;;;;;;;;;5117810;28;20229;-64
2021/08/28 02:16:32;;;;;;;2.70;1.17;;;;;;;;;;5117587;28;20205;-64
2021/08/28 02:19:04;;;;;;;2.03;1.00;;;;;;;;;;5117796;28;20228;-64
2021/08/28 02:21:34;;;;;;;1.93;1.20;;;;;;;;;;5117912;28;20522;-64
2021/08/28 02:24:03;;;;;;;1.47;1.10;;;;;;;;;;5117765;28;20229;-64
2021/08/28 02:26:35;;;;;;;2.43;1.27;;;;;;;;;;5105801;28;20265;-64
2021/08/28 02:29:05;;;;;;;1.53;1.10;;;;;;;;;;5097533;28;20201;-64
2021/08/28 02:31:34;;;;;;;1.70;1.13;;;;;;;;;;5097821;28;20664;-64
2021/08/28 02:34:05;;;;;;;2.83;1.47;;;;;;;;;;5101337;28;20222;-64
2021/08/28 02:36:33;;;;;;;5.33;1.20;;;;;;;;;;5101347;28;20209;-64
2021/08/28 02:39:02;;;;;;;5.57;1.23;;;;;;;;;;5100998;28;20743;-64
2021/08/28 02:41:31;;;;;;;2.47;0.97;;;;;;;;;;5101749;28;20241;-64
2021/08/28 02:44:00;;;;;;;1.83;1.20;;;;;;;;;;5102197;28;20232;-64
2021/08/28 02:46:28;;;;;;;1.83;0.90;;;;;;;;;;5101001;28;20205;-64
2021/08/28 02:48:57;;;;;;;1.23;1.00;;;;;;;;;;5101001;28;20243;-66
2021/08/28 02:51:28;;;;;;;2.87;1.20;;;;;;;;;;5104089;28;20280;-65
2021/08/28 02:53:59;;;;;;;1.97;1.33;;;;;;;;;;5111713;28;20224;-64
2021/08/28 02:56:28;;;;;;;3.70;1.40;;;;;;;;;;5121289;28;20707;-66
2021/08/28 02:58:56;;;;;;;1.80;1.20;;;;;;;;;;5121251;28;20288;-64
2021/08/28 03:01:26;;;;;;;0.90;0.90;;;;;;;;;;5120637;28;20665;-65
2021/08/28 03:03:55;;;;;;;2.30;1.00;;;;;;;;;;5121239;28;20220;-64
2021/08/28 03:06:25;;;;;;;1.83;1.30;;;;;;;;;;5120899;28;20215;-65
2021/08/28 03:08:55;;;;;;;4.17;1.10;;;;;;;;;;5121314;28;20197;-66
2021/08/28 03:11:23;;;;;;;1.60;1.40;;;;;;;;;;5120903;27;20582;-64
2021/08/28 03:13:51;;;;;;;1.40;1.30;;;;;;;;;;5120866;28;20316;-65
2021/08/28 03:16:20;;;;;;;1.07;0.97;;;;;;;;;;5121460;28;20721;-65
2021/08/28 03:18:49;;;;;;;3.43;1.40;;;;;;;;;;5118454;28;20229;-65
2021/08/28 03:21:20;;;;;;;1.10;1.00;;;;;;;;;;5108415;28;20727;-64
2021/08/28 03:23:48;;;;;;;1.50;1.20;;;;;;;;;;5108438;28;20304;-64
2021/08/28 03:26:20;;;;;;;1.23;1.13;;;;;;;;;;5108743;28;20571;-64
2021/08/28 03:28:48;;;;;;;2.43;1.40;;;;;;;;;;5106822;28;20193;-64
2021/08/28 03:31:17;;;;;;;3.13;1.10;;;;;;;;;;5108107;28;20635;-64
2021/08/28 03:33:46;;;;;;;3.50;1.23;;;;;;;;;;5106848;28;20620;-64
2021/08/28 03:36:16;;;;;;;2.67;1.00;;;;;;;;;;5107974;28;20208;-65
2021/08/28 03:38:44;;;;;;;6.30;1.40;;;;;;;;;;5107071;27;20694;-64
2021/08/28 03:41:12;;;;;;;2.40;1.10;;;;;;;;;;5108117;28;20204;-65
2021/08/28 03:43:43;;;;;;;2.93;1.60;;;;;;;;;;5105887;28;20197;-65
2021/08/28 03:46:11;;;;;;;2.07;1.47;;;;;;;;;;5108817;28;20202;-62
2021/08/28 03:48:40;;;;;;;3.17;1.17;;;;;;;;;;5106177;28;20586;-63
2021/08/28 03:51:08;;;;;;;2.57;1.30;;;;;;;;;;5111239;28;20225;-65
2021/08/28 03:53:37;;;;;;;4.10;1.63;;;;;;;;;;5111589;28;20280;-63
2021/08/28 03:56:06;;;;;;;4.00;1.60;;;;;;;;;;5111975;28;20236;-63
2021/08/28 03:58:34;;;;;;;1.40;0.87;;;;;;;;;;5106821;28;20231;-65
2021/08/28 04:01:04;;;;;;;3.63;1.33;;;;;;;;;;5106636;28;20209;-65
2021/08/28 04:03:32;;;;;;;2.93;1.40;;;;;;;;;;5107707;28;20201;-65
2021/08/28 04:06:01;;;;;;;3.00;1.17;;;;;;;;;;5107436;28;20675;-65
2021/08/28 04:08:29;;;;;;;1.77;1.00;;;;;;;;;;5106796;28;20756;-65
2021/08/28 04:10:57;;;;;;;2.43;1.27;;;;;;;;;;5105252;28;20194;-64
2021/08/28 04:13:25;;;;;;;1.83;1.00;;;;;;;;;;5108017;28;20280;-63
2021/08/28 04:15:54;;;;;;;7.60;1.60;;;;;;;;;;5105078;28;20292;-63
2021/08/28 04:18:24;;;;;;;2.57;1.07;;;;;;;;;;5107398;28;20598;-63
2021/08/28 04:20:52;;;;;;;2.20;1.17;;;;;;;;;;5107577;28;20205;-63
2021/08/28 04:23:20;;;;;;;2.07;1.30;;;;;;;;;;5099211;28;20198;-63
2021/08/28 04:25:48;;;;;;;2.33;1.30;;;;;;;;;;5106293;28;20567;-64
2021/08/28 04:28:16;;;;;;;1.37;0.90;;;;;;;;;;5107595;28;20227;-63
2021/08/28 04:30:44;;;;;;;2.87;1.13;;;;;;;;;;5105699;28;20198;-63
2021/08/28 04:33:14;;;;;;;1.77;1.53;;;;;;;;;;5106793;27;20221;-63
2021/08/28 04:35:44;;;;;;;2.77;1.10;;;;;;;;;;5104333;28;20245;-63
2021/08/28 04:38:12;;;;;;;4.03;1.50;;;;;;;;;;5106131;28;20246;-63
2021/08/28 04:40:43;;;;;;;5.20;1.33;;;;;;;;;;5106161;28;20594;-63
2021/08/28 04:43:12;;;;;;;2.63;1.20;;;;;;;;;;5106276;28;20221;-63
2021/08/28 04:45:40;;;;;;;1.70;0.93;;;;;;;;;;5107341;28;20297;-63
2021/08/28 04:48:08;;;;;;;2.13;1.10;;;;;;;;;;5106056;27;20284;-65
2021/08/28 04:50:36;;;;;;;3.20;1.30;;;;;;;;;;5106559;28;20315;-62
2021/08/28 04:53:05;;;;;;;2.30;1.10;;;;;;;;;;5104488;28;20233;-65
2021/08/28 04:55:33;;;;;;;2.50;1.20;;;;;;;;;;5097824;28;20704;-64
2021/08/28 04:58:01;;;;;;;1.10;1.00;;;;;;;;;;5101166;28;20197;-62
2021/08/28 05:00:30;;;;;;;9.80;4.03;;;;;;;;;;5097713;28;20300;-64
2021/08/28 05:02:58;;;;;;;4.60;1.40;;;;;;;;;;5097793;28;20219;-64
2021/08/28 05:05:26;;;;;;;2.17;1.20;;;;;;;;;;5098076;28;20270;-63
2021/08/28 05:07:54;;;;;;;1.97;1.57;;;;;;;;;;5097892;28;20281;-65
2021/08/28 05:10:24;;;;;;;1.70;1.03;;;;;;;;;;5098367;28;20202;-65
2021/08/28 05:12:52;;;;;;;0.93;0.87;;;;;;;;;;5098455;28;20288;-64
2021/08/28 05:15:20;;;;;;;2.27;1.27;;;;;;;;;;5098300;28;20788;-64
2021/08/28 05:17:48;;;;;;;4.60;1.63;;;;;;;;;;5097991;28;20297;-65
2021/08/28 05:20:16;;;;;;;4.00;1.50;;;;;;;;;;5098226;28;20229;-65
2021/08/28 05:22:44;;;;;;;1.37;1.20;;;;;;;;;;5103026;28;20198;-65
2021/08/28 05:25:12;;;;;;;1.00;0.90;;;;;;;;;;5110693;28;20222;-65
2021/08/28 05:27:42;;;;;;;3.00;1.20;;;;;;;;;;5110634;28;20287;-65
2021/08/28 05:30:10;;;;;;;1.80;1.13;;;;;;;;;;5098158;28;20261;-65
2021/08/28 05:32:38;;;;;;;2.77;1.40;;;;;;;;;;5097209;28;20205;-65
2021/08/28 05:35:06;;;;;;;1.70;1.20;;;;;;;;;;5097551;28;20232;-65
2021/08/28 05:37:34;;;;;;;1.70;0.93;;;;;;;;;;5097462;28;20213;-65
2021/08/28 05:40:02;;;;;;;5.00;1.73;;;;;;;;;;5097234;28;20587;-65
2021/08/28 05:42:30;;;;;;;2.57;1.37;;;;;;;;;;5097600;28;20215;-65
2021/08/28 05:44:59;;;;;;;4.07;1.70;;;;;;;;;;5097375;28;20232;-65
2021/08/28 05:47:27;;;;;;;3.17;1.40;;;;;;;;;;5097210;28;20205;-65
2021/08/28 05:49:55;;;;;;;4.57;1.40;;;;;;;;;;5100110;28;20228;-64
2021/08/28 05:52:23;;;;;;;4.20;1.50;;;;;;;;;;5104979;28;20196;-63
2021/08/28 05:54:51;;;;;;;2.37;1.23;;;;;;;;;;5106449;28;20222;-63
2021/08/28 05:57:19;;;;;;;5.63;1.07;;;;;;;;;;5107269;28;20203;-64
2021/08/28 05:59:47;;;;;;;4.00;1.60;;;;;;;;;;5104349;28;20317;-64
2021/08/28 06:02:17;;;;;;;1.67;1.10;;;;;;;;;;5102314;28;20280;-64
2021/08/28 06:04:45;;;;;;;1.67;1.00;;;;;;;;;;5097102;28;20232;-64
2021/08/28 06:07:13;;;;;;;2.17;1.10;;;;;;;;;;5101132;28;20237;-64
2021/08/28 06:09:41;;;;;;;1.10;0.70;;;;;;;;;;5101375;28;20211;-64
2021/08/28 06:12:11;;;;;;;4.97;1.50;;;;;;;;;;5104916;28;20196;-64
2021/08/28 06:14:39;;;;;;;3.47;1.40;;;;;;;;;;5110847;28;20221;-64
2021/08/28 06:17:07;;;;;;;2.60;1.00;;;;;;;;;;5108303;28;20218;-63
2021/08/28 06:19:36;;;;;;;2.93;1.40;;;;;;;;;;5100601;28;20228;-64
2021/08/28 06:22:04;;;;;;;3.27;1.47;;;;;;;;;;5100616;28;20205;-64
2021/08/28 06:24:32;;;;;;;5.23;1.00;;;;;;;;;;5104957;28;20227;-64
2021/08/28 06:27:00;;;;;;;2.23;1.20;;;;;;;;;;5105558;28;20211;-64
2021/08/28 06:29:28;;;;;;;4.17;1.20;;;;;;;;;;5106124;28;20284;-64
2021/08/28 06:31:56;;;;;;;1.80;1.20;;;;;;;;;;5115240;28;20197;-64
2021/08/28 06:34:24;;;;;;;2.60;1.37;;;;;;;;;;5108982;28;20229;-64
2021/08/28 06:36:53;;;;;;;2.37;1.30;;;;;;;;;;5104050;28;20848;-64
2021/08/28 06:39:21;;;;;;;3.27;1.40;;;;;;;;;;5107256;28;20202;-63
2021/08/28 06:41:50;;;;;;;1.00;1.00;;;;;;;;;;5106682;28;20206;-63
2021/08/28 06:44:18;;;;;;;5.17;1.20;;;;;;;;;;5108959;28;20260;-63
2021/08/28 06:46:46;;;;;;;1.53;1.33;;;;;;;;;;5108549;28;20220;-64
2021/08/28 06:49:14;;;;;;;2.47;1.20;;;;;;;;;;5111578;28;20259;-63
2021/08/28 06:51:42;;;;;;;4.83;1.30;;;;;;;;;;5110743;28;20197;-63
2021/08/28 06:54:12;;;;;;;3.43;1.70;;;;;;;;;;5107265;28;20264;-61
2021/08/28 06:56:41;;;;;;;205.10;116.77;;;;;;;;;;5108296;28;20208;-62
2021/08/28 06:59:09;;;;;;;11.20;5.53;;;;;;;;;;5105116;28;20206;-62
2021/08/28 07:01:37;;;;;;;6.73;3.67;;;;;;;;;;5105082;28;20309;-62
2021/08/28 07:04:06;;;;;;;4.50;2.30;;;;;;;;;;5103281;28;20232;-61
2021/08/28 07:06:34;;;;;;;3.07;1.50;;;;;;;;;;5102572;28;20261;-62
2021/08/28 07:09:03;;;;;;;6.00;1.53;;;;;;;;;;5101625;28;20565;-61
2021/08/28 07:11:32;;;;;;;2.27;1.47;;;;;;;;;;5116065;28;20229;-61
2021/08/28 07:14:00;;;;;;;11.63;6.30;;;;;;;;;;5102864;28;20261;-62
2021/08/28 07:16:28;;;;;;;6.63;2.83;;;;;;;;;;5105674;28;20201;-62
2021/08/28 07:18:56;;;;;;;5.70;2.73;;;;;;;;;;5104012;28;20197;-62
2021/08/28 07:21:24;;;;;;;7.43;2.33;;;;;;;;;;5107949;28;20312;-62
2021/08/28 07:23:52;;;;;;;6.40;3.50;;;;;;;;;;5108142;28;20227;-62
2021/08/28 07:26:20;;;;;;;5.50;2.17;;;;;;;;;;5106359;28;20227;-62
2021/08/28 07:28:50;;;;;;;1.87;1.50;;;;;;;;;;5107859;28;20288;-62
2021/08/28 07:31:18;;;;;;;3.60;2.03;;;;;;;;;;5105808;28;20197;-62
2021/08/28 07:33:46;;;;;;;12.60;4.47;;;;;;;;;;5106508;28;20225;-62
2021/08/28 07:36:13;;;;;;;7.80;4.17;;;;;;;;;;5109817;28;20572;-62
2021/08/28 07:38:41;;;;;;;9.20;3.70;;;;;;;;;;5106019;28;20542;-62
2021/08/28 07:41:09;;;;;;;12.27;2.47;;;;;;;;;;5107996;28;20229;-62
2021/08/28 07:43:38;;;;;;;3.93;2.00;;;;;;;;;;5105462;28;20210;-62
2021/08/28 07:46:07;;;;;;;4.20;2.47;;;;;;;;;;5103670;28;20289;-62
2021/08/28 07:48:35;;;;;;;4.17;1.80;;;;;;;;;;5110731;28;20234;-63
2021/08/28 07:51:03;;;;;;;2.33;1.60;;;;;;;;;;5108913;28;20233;-64
2021/08/28 07:53:31;;;;;;;3.20;1.70;;;;;;;;;;5108480;28;20209;-64
2021/08/28 07:55:59;;;;;;;3.90;2.13;;;;;;;;;;5105619;27;20201;-64
2021/08/28 07:58:27;;;;;;;4.70;2.07;;;;;;;;;;5106478;28;20547;-64
2021/08/28 08:00:55;;;;;;;2.60;2.03;;;;;;;;;;5103399;28;20328;-64
2021/08/28 08:03:25;;;;;;;5.73;3.13;;;;;;;;;;5102127;28;20296;-63
2021/08/28 08:05:54;;;;;;;6.63;2.83;;;;;;;;;;5100828;28;20197;-64
2021/08/28 08:08:22;;;;;;;5.30;3.30;;;;;;;;;;5105761;28;20225;-63
2021/08/28 08:10:50;;;;;;;2.77;2.43;;;;;;;;;;5116327;28;20232;-63
2021/08/28 08:13:18;;;;;;;2.33;1.80;;;;;;;;;;5106375;28;20614;-64
2021/08/28 08:15:46;;;;;;;3.60;2.47;;;;;;;;;;5115867;28;20576;-63
2021/08/28 08:18:14;;;;;;;4.73;2.03;;;;;;;;;;5104201;28;20285;-63
2021/08/28 08:20:44;;;;;;;3.13;1.87;;;;;;;;;;5098082;28;20706;-64
2021/08/28 08:23:12;;;;;;;3.37;1.80;;;;;;;;;;5098223;28;20205;-63
2021/08/28 08:25:40;;;;;;;4.43;2.07;;;;;;;;;;5115814;28;20714;-63
2021/08/28 08:28:08;;;;;;;4.23;1.80;;;;;;;;;;5109145;28;20202;-63
2021/08/28 08:30:36;;;;;;;3.53;2.03;;;;;;;;;;5112622;28;20193;-63
2021/08/28 08:33:04;;;;;;;4.07;1.40;;;;;;;;;;5105839;28;20236;-63
2021/08/28 08:35:32;;;;;;;2.87;1.63;;;;;;;;;;5107930;28;20699;-63
2021/08/28 08:38:02;;;;;;;4.07;1.43;;;;;;;;;;5100985;28;20600;-63
2021/08/28 08:40:30;;;;;;;2.90;1.70;;;;;;;;;;5107976;28;20244;-63
2021/08/28 08:43:00;;;;;;;4.80;2.47;;;;;;;;;;5114221;28;20247;-63
2021/08/28 08:45:28;;;;;;;3.47;1.47;;;;;;;;;;5113306;28;20292;-63
2021/08/28 08:47:57;;;;;;;3.33;1.53;;;;;;;;;;5112955;28;20217;-63
2021/08/28 08:50:25;;;;;;;5.47;2.10;;;;;;;;;;5110489;28;20241;-63
2021/08/28 08:52:54;;;;;;;3.27;1.53;;;;;;;;;;5106784;28;20723;-63
2021/08/28 08:55:24;;;;;;;3.93;1.50;;;;;;;;;;5110696;28;20316;-63
2021/08/28 08:58:12;;;;;;;3.00;2.07;;;;;;;;;;5104524;28;20213;-63
2021/08/28 09:00:40;;;;;;;6.90;2.17;;;;;;;;;;5113076;28;20232;-63
2021/08/28 09:03:08;;;;;;;4.60;1.13;;;;;;;;;;5110220;28;20204;-63
2021/08/28 09:05:36;;;;;;;3.30;1.70;;;;;;;;;;5111983;28;20221;-63
2021/08/28 09:08:05;;;;;;;4.27;1.83;;;;;;;;;;5108127;28;20675;-63
2021/08/28 09:10:34;;;;;;;3.43;2.43;;;;;;;;;;5110028;28;20294;-63
2021/08/28 09:13:11;;;;;;;3.93;1.50;;;;;;;;;;5106389;28;20740;-63
2021/08/28 09:15:43;;;;;;;3.53;1.70;;;;;;;;;;5103981;28;20328;-63
2021/08/28 09:18:11;;;;;;;3.83;1.27;;;;;;;;;;5104454;28;20201;-63
2021/08/28 09:20:39;;;;;;;2.43;2.20;;;;;;;;;;5105287;28;20293;-63
2021/08/28 09:23:08;;;;;;;3.90;1.50;;;;;;;;;;5102711;28;20239;-63
2021/08/28 09:25:39;;;;;;;3.77;1.83;;;;;;;;;;5106792;28;20745;-63
2021/08/28 09:28:07;;;;;;;2.77;1.63;;;;;;;;;;5101416;28;20280;-63
2021/08/28 09:30:36;;;;;;;6.33;1.80;;;;;;;;;;5100316;28;20234;-63
2021/08/28 09:33:05;;;;;;;3.50;1.40;;;;;;;;;;5099584;28;20715;-63
2021/08/28 09:35:34;;;;;;;2.20;1.40;;;;;;;;;;5099746;28;20593;-63
2021/08/28 09:38:03;;;;;;;3.83;1.57;;;;;;;;;;5101192;28;20233;-63
2021/08/28 09:40:31;;;;;;;1.87;1.77;;;;;;;;;;5101260;28;20288;-63
2021/08/28 09:43:02;;;;;;;4.53;1.87;;;;;;;;;;5108773;28;20783;-62
2021/08/28 09:45:30;;;;;;;1.70;1.33;;;;;;;;;;5102565;28;20584;-63
2021/08/28 09:47:58;;;;;;;3.53;1.70;;;;;;;;;;5103735;28;20206;-62
2021/08/28 09:50:27;;;;;;;2.50;1.90;;;;;;;;;;5108176;28;20228;-62
2021/08/28 09:52:56;;;;;;;6.50;2.23;;;;;;;;;;5102007;28;20224;-62
2021/08/28 09:55:24;;;;;;;3.03;1.37;;;;;;;;;;5105774;28;20217;-62
2021/08/28 09:57:52;;;;;;;6.63;2.00;;;;;;;;;;5104159;28;20781;-62
2021/08/28 10:00:22;;;;;;;2.03;1.40;;;;;;;;;;5104010;28;20209;-61
2021/08/28 10:02:57;;;;;;;3.83;2.70;;;;;;;;;;5101567;28;20720;-61
2021/08/28 10:05:27;;;;;;;2.50;1.63;;;;;;;;;;5107588;28;20225;-62
2021/08/28 10:07:56;;;;;;;4.60;2.20;;;;;;;;;;5104204;28;20254;-62
2021/08/28 10:10:24;;;;;;;3.83;1.93;;;;;;;;;;5107893;28;20659;-63
2021/08/28 10:12:52;;;;;;;2.73;1.60;;;;;;;;;;5104619;28;20194;-62
2021/08/28 10:15:22;;;;;;;3.90;1.53;;;;;;;;;;5103241;28;20853;-63
2021/08/28 10:17:50;;;;;;;5.43;2.03;;;;;;;;;;5108410;28;20201;-63
2021/08/28 10:20:19;;;;;;;2.70;1.40;;;;;;;;;;5108661;28;20236;-63
2021/08/28 10:22:49;;;;;;;3.93;2.00;;;;;;;;;;5109610;28;20691;-63
2021/08/28 10:25:18;;;;;;;3.47;1.57;;;;;;;;;;5108456;28;20229;-62
2021/08/28 10:27:47;;;;;;;3.37;2.03;;;;;;;;;;5106987;28;20564;-63
2021/08/28 10:30:15;;;;;;;1.53;1.30;;;;;;;;;;5107259;28;20233;-63
2021/08/28 10:32:45;;;;;;;4.07;1.73;;;;;;;;;;5100606;28;20201;-63
2021/08/28 10:35:13;;;;;;;2.80;1.47;;;;;;;;;;5103448;28;20225;-63
2021/08/28 10:37:42;;;;;;;3.33;1.63;;;;;;;;;;5104474;28;20648;-63
2021/08/28 10:40:12;;;;;;;3.53;1.30;;;;;;;;;;5108128;28;20281;-63
2021/08/28 10:42:41;;;;;;;4.07;2.10;;;;;;;;;;5104421;28;20231;-63
2021/08/28 10:45:09;;;;;;;3.50;1.13;;;;;;;;;;5099391;28;20285;-63
2021/08/28 10:47:38;;;;;;;3.23;1.20;;;;;;;;;;5096751;28;20201;-63
2021/08/28 10:50:08;;;;;;;2.57;1.30;;;;;;;;;;5110506;28;20312;-63
2021/08/28 10:52:37;;;;;;;4.67;1.83;;;;;;;;;;5097040;28;20297;-63
2021/08/28 10:55:07;;;;;;;2.17;1.33;;;;;;;;;;5108423;28;20213;-63
2021/08/28 10:57:36;;;;;;;4.73;1.87;;;;;;;;;;5120834;28;20361;-61
2021/08/28 11:00:08;;;;;;;2.17;1.17;;;;;;;;;;5119433;27;20679;-64
2021/08/28 11:02:52;;;;;;;3.03;2.00;;;;;;;;;;5119601;28;20281;-64
2021/08/28 11:05:23;;;;;;;5.23;2.37;;;;;;;;;;5119344;28;20219;-63
2021/08/28 11:07:52;;;;;;;4.50;2.43;;;;;;;;;;5105147;27;20556;-64
2021/08/28 11:10:20;;;;;;;5.60;1.97;;;;;;;;;;5100552;28;20210;-63
2021/08/28 11:12:50;;;;;;;4.37;1.77;;;;;;;;;;5100329;28;20285;-63
2021/08/28 11:15:41;;;;;;;2.23;1.60;;;;;;;;;;5102544;28;20263;-63
2021/08/28 11:18:11;;;;;;;4.93;1.57;;;;;;;;;;5100299;28;20201;-64
2021/08/28 11:20:41;;;;;;;2.07;1.53;;;;;;;;;;5100005;28;20205;-63
2021/08/28 11:23:11;;;;;;;3.47;1.73;;;;;;;;;;5099771;28;20304;-64
2021/08/28 11:25:41;;;;;;;3.97;1.30;;;;;;;;;;5102604;28;20223;-63
2021/08/28 11:28:09;;;;;;;1.87;1.20;;;;;;;;;;5099727;28;20387;-64
2021/08/28 11:30:53;;;;;;;4.00;2.10;;;;;;;;;;5106647;28;20280;-63
2021/08/28 11:33:25;;;;;;;3.10;1.67;;;;;;;;;;5102854;28;20572;-64
2021/08/28 11:35:57;;;;;;;2.37;1.60;;;;;;;;;;5111932;28;20593;-61
2021/08/28 11:38:38;;;;;;;2.33;1.37;;;;;;;;;;5120043;28;20284;-63
2021/08/28 11:41:07;;;;;;;2.20;1.70;;;;;;;;;;5119750;28;20268;-63
2021/08/28 11:43:36;;;;;;;3.57;2.80;;;;;;;;;;5118802;28;20828;-62
2021/08/28 11:46:05;;;;;;;3.97;1.63;;;;;;;;;;5104533;28;20280;-62
2021/08/28 11:48:35;;;;;;;2.53;1.10;;;;;;;;;;5101813;28;20202;-63
2021/08/28 11:51:09;;;;;;;2.33;1.27;;;;;;;;;;5112132;27;20251;-64
2021/08/28 11:53:40;;;;;;;4.10;1.23;;;;;;;;;;5099922;28;20201;-63
2021/08/28 11:56:10;;;;;;;2.10;0.97;;;;;;;;;;5109058;28;20192;-63
2021/08/28 11:58:51;;;;;;;1.40;1.30;;;;;;;;;;5102449;28;20728;-63
2021/08/28 12:01:36;;;;;;;1.87;1.07;;;;;;;;;;5099568;28;20212;-63
2021/08/28 12:04:06;;;;;;;1.87;1.30;;;;;;;;;;5104571;28;20303;-63
2021/08/28 12:06:36;;;;;;;6.20;1.57;;;;;;;;;;5115119;28;20280;-63
2021/08/28 12:09:05;;;;;;;5.00;1.17;;;;;;;;;;5107289;28;20664;-63
2021/08/28 12:11:33;;;;;;;2.13;1.57;;;;;;;;;;5119728;28;20723;-64
2021/08/28 12:14:02;;;;;;;4.70;1.87;;;;;;;;;;5103267;28;20293;-63
2021/08/28 12:16:31;;;;;;;1.77;1.47;;;;;;;;;;5116789;28;20613;-61
2021/08/28 12:19:00;;;;;;;2.33;1.50;;;;;;;;;;5117809;28;20231;-64
2021/08/28 12:21:28;;;;;;;2.77;1.23;;;;;;;;;;5118472;28;20201;-62
2021/08/28 12:24:11;;;;;;;2.03;1.40;;;;;;;;;;5116910;28;20265;-63
2021/08/28 12:26:39;;;;;;;4.93;1.27;;;;;;;;;;5107160;28;20209;-63
2021/08/28 12:29:07;;;;;;;5.80;1.50;;;;;;;;;;5107186;28;20288;-61
2021/08/28 12:31:35;;;;;;;4.10;1.47;;;;;;;;;;5108259;28;20288;-62
2021/08/28 12:34:03;;;;;;;2.07;1.67;;;;;;;;;;5108796;28;20220;-63
2021/08/28 12:36:34;;;;;;;1.97;1.37;;;;;;;;;;5108067;28;20288;-64
2021/08/28 12:39:05;;;;;;;2.23;1.20;;;;;;;;;;5104253;28;20635;-64
2021/08/28 12:41:34;;;;;;;1.93;1.23;;;;;;;;;;5105857;28;20202;-64
2021/08/28 12:44:03;;;;;;;2.10;1.37;;;;;;;;;;5108168;28;20227;-62
2021/08/28 12:46:31;;;;;;;2.93;2.03;;;;;;;;;;5104457;28;20209;-65
2021/08/28 12:49:09;;;;;;;2.20;1.43;;;;;;;;;;5106292;28;20197;-65
2021/08/28 12:51:37;;;;;;;1.03;1.00;;;;;;;;;;5106427;27;20789;-64
2021/08/28 12:54:07;;;;;;;1.77;1.60;;;;;;;;;;5106997;28;20217;-64
2021/08/28 12:56:47;;;;;;;2.33;1.30;;;;;;;;;;5104830;28;20292;-64
2021/08/28 12:59:16;;;;;;;2.93;1.10;;;;;;;;;;5108343;28;20285;-64
2021/08/28 13:01:47;;;;;;;3.43;1.23;;;;;;;;;;5097038;28;20202;-66
2021/08/28 13:04:16;;;;;;;1.67;1.20;;;;;;;;;;5097280;28;20743;-66
2021/08/28 13:06:44;;;;;;;8.00;1.60;;;;;;;;;;5101433;28;20635;-66
2021/08/28 13:09:16;;;;;;;2.50;1.13;;;;;;;;;;5105155;28;20194;-66
2021/08/28 13:11:53;;;;;;;1.40;1.30;;;;;;;;;;5103836;28;20192;-66
2021/08/28 13:14:21;;;;;;;4.10;1.00;;;;;;;;;;5105730;28;20291;-65
2021/08/28 13:16:53;;;;;;;3.47;1.10;;;;;;;;;;5108013;28;20233;-68
2021/08/28 13:19:21;;;;;;;1.37;1.23;;;;;;;;;;5117687;28;20197;-65
2021/08/28 13:21:56;;;;;;;1.23;1.00;;;;;;;;;;5119966;28;20212;-65
2021/08/28 13:24:26;;;;;;;1.87;1.47;;;;;;;;;;5114754;27;20230;-65
2021/08/28 13:26:58;;;;;;;5.73;1.10;;;;;;;;;;5109159;28;20201;-64
2021/08/28 13:29:27;;;;;;;3.17;1.40;;;;;;;;;;5118178;28;20209;-67
2021/08/28 13:32:08;;;;;;;1.73;1.10;;;;;;;;;;5102680;28;20286;-66
2021/08/28 13:34:37;;;;;;;3.33;1.60;;;;;;;;;;5097182;28;20311;-66
2021/08/28 13:37:05;;;;;;;3.00;1.33;;;;;;;;;;5109769;28;20201;-67
2021/08/28 13:39:35;;;;;;;2.47;1.50;;;;;;;;;;5106991;28;20628;-66
2021/08/28 13:42:03;;;;;;;1.87;1.37;;;;;;;;;;5105299;28;20340;-66
2021/08/28 13:44:31;;;;;;;2.70;1.70;;;;;;;;;;5104927;28;20222;-65
2021/08/28 13:46:59;;;;;;;1.87;0.90;;;;;;;;;;5104761;28;20284;-67
2021/08/28 13:49:27;;;;;;;2.77;1.00;;;;;;;;;;5100836;28;20265;-64
2021/08/28 13:51:55;;;;;;;1.37;1.10;;;;;;;;;;5106860;28;20742;-64
2021/08/28 13:54:23;;;;;;;4.60;1.27;;;;;;;;;;5106677;28;20231;-64
2021/08/28 13:56:52;;;;;;;1.40;1.03;;;;;;;;;;5096852;28;20204;-63
2021/08/28 13:59:20;;;;;;;3.70;1.23;;;;;;;;;;5103798;28;20193;-64
2021/08/28 14:01:48;;;;;;;9.50;1.30;;;;;;;;;;5099424;28;20572;-64
2021/08/28 14:04:18;;;;;;;1.63;1.27;;;;;;;;;;5105420;28;20312;-64
2021/08/28 14:06:46;;;;;;;3.53;1.63;;;;;;;;;;5115055;28;20200;-64
2021/08/28 14:09:13;;;;;;;2.03;1.57;;;;;;;;;;5116615;28;20214;-65
2021/08/28 14:11:42;;;;;;;1.67;1.10;;;;;;;;;;5110049;28;20258;-65
2021/08/28 14:14:13;;;;;;;1.20;1.10;;;;;;;;;;5107459;28;20222;-64
2021/08/28 14:16:42;;;;;;;3.20;1.37;;;;;;;;;;5103320;28;20205;-63
2021/08/28 14:19:10;;;;;;;2.07;1.40;;;;;;;;;;5104176;28;20194;-64
2021/08/28 14:21:38;;;;;;;1.30;1.20;;;;;;;;;;5104569;28;20231;-64
2021/08/28 14:24:06;;;;;;;1.27;1.13;;;;;;;;;;5101064;28;20260;-64
2021/08/28 14:26:34;;;;;;;1.87;1.40;;;;;;;;;;5106640;28;20288;-64
2021/08/28 14:29:02;;;;;;;1.97;1.33;;;;;;;;;;5107961;28;20204;-64
2021/08/28 14:31:32;;;;;;;2.00;1.00;;;;;;;;;;5111238;28;20201;-64
2021/08/28 14:34:00;;;;;;;3.63;1.40;;;;;;;;;;5111046;28;20239;-64
2021/08/28 14:36:28;;;;;;;2.43;0.97;;;;;;;;;;5111694;28;20196;-63
2021/08/28 14:38:56;;;;;;;1.60;1.00;;;;;;;;;;5109736;28;20633;-63
2021/08/28 14:41:25;;;;;;;4.43;1.13;;;;;;;;;;5109523;28;20574;-63
2021/08/28 14:43:53;;;;;;;1.63;0.97;;;;;;;;;;5106772;28;20253;-63
2021/08/28 14:46:20;;;;;;;2.10;1.20;;;;;;;;;;5108255;28;20209;-64
2021/08/28 14:48:50;;;;;;;2.03;1.10;;;;;;;;;;5109733;28;20203;-63
2021/08/28 14:51:18;;;;;;;1.60;1.20;;;;;;;;;;5108602;28;20654;-63
2021/08/28 14:53:46;;;;;;;1.97;1.30;;;;;;;;;;5109946;28;20225;-63
2021/08/28 14:56:14;;;;;;;1.30;1.20;;;;;;;;;;5111070;28;20209;-64